createdAt,value
2022-10-03T00:01:18.183Z,98832.41
2022-10-03T00:04:17.624Z,98831.84
2022-10-03T00:07:10.091Z,98843.00
2022-10-03T00:10:01.096Z,98841.09
2022-10-03T00:13:07.818Z,98847.91
2022-10-03T00:15:46.891Z,98844.56
2022-10-03T00:18:33.979Z,98839.12
2022-10-03T00:21:08.559Z,98846.47
2022-10-03T00:23:54.497Z,98850.56
2022-10-03T00:26:35.236Z,98844.03
2022-10-03T00:29:23.981Z,98850.81
2022-10-03T00:32:15.578Z,98847.53
2022-10-03T00:34:51.120Z,98848.06
2022-10-03T00:37:23.895Z,98844.78
2022-10-03T00:40:29.234Z,98839.03
2022-10-03T00:43:27.458Z,98837.63
2022-10-03T00:46:14.938Z,98840.31
2022-10-03T00:49:15.541Z,98837.56
2022-10-03T00:52:15.710Z,98839.47
2022-10-03T00:54:54.553Z,98841.31
2022-10-03T00:57:55.957Z,98838.31
2022-10-03T01:00:27.205Z,98836.88
2022-10-03T01:03:15.829Z,98837.41
2022-10-03T01:06:10.232Z,98838.50
2022-10-03T01:08:36.925Z,98839.84
2022-10-03T01:11:26.030Z,98839.53
2022-10-03T01:14:00.870Z,98844.41
2022-10-03T01:16:55.918Z,98840.06
2022-10-03T01:19:49.122Z,98842.47
2022-10-03T01:22:34.284Z,98837.53
2022-10-03T01:25:28.785Z,98840.53
2022-10-03T01:28:26.516Z,98844.34
2022-10-03T01:30:58.983Z,98839.88
2022-10-03T01:33:35.129Z,98831.69
2022-10-03T01:36:15.228Z,98832.47
2022-10-03T01:38:50.009Z,98843.59
2022-10-03T01:41:54.488Z,98845.50
2022-10-03T01:45:22.504Z,98845.50
2022-10-03T01:47:56.687Z,98841.41
2022-10-03T01:50:58.658Z,98849.81
2022-10-03T01:54:02.411Z,98838.59
2022-10-03T01:56:32.155Z,98838.28
2022-10-03T01:59:18.288Z,98833.66
2022-10-03T02:02:18.078Z,98824.69
2022-10-03T02:05:35.884Z,98832.84
2022-10-03T02:08:19.293Z,98837.47
2022-10-03T02:10:53.752Z,98842.09
2022-10-03T02:13:36.338Z,98846.16
2022-10-03T02:16:27.936Z,98843.69
2022-10-03T02:19:06.898Z,98846.41
2022-10-03T02:21:45.720Z,98840.97
2022-10-03T02:24:14.949Z,98849.69
2022-10-03T02:27:03.357Z,98861.12
2022-10-03T02:29:41.736Z,98867.41
2022-10-03T02:32:27.494Z,98876.62
2022-10-03T02:35:15.844Z,98859.75
2022-10-03T02:38:20.602Z,98861.91
2022-10-03T02:41:23.146Z,98879.59
2022-10-03T02:44:20.077Z,98887.78
2022-10-03T02:47:09.212Z,98888.34
2022-10-03T02:49:45.233Z,98879.34
2022-10-03T02:52:17.924Z,98891.31
2022-10-03T02:54:53.334Z,98898.41
2022-10-03T02:57:41.415Z,98896.75
2022-10-03T03:00:41.255Z,98914.97
2022-10-03T03:03:23.450Z,98910.34
2022-10-03T03:06:07.689Z,98909.53
2022-10-03T03:08:58.811Z,98906.00
2022-10-03T03:11:50.238Z,98908.97
2022-10-03T03:14:38.659Z,98912.50
2022-10-03T03:17:40.690Z,98909.78
2022-10-03T03:20:07.349Z,98908.72
2022-10-03T03:22:56.878Z,98909.78
2022-10-03T03:25:51.544Z,98916.56
2022-10-03T03:28:54.897Z,98913.03
2022-10-03T03:31:39.596Z,98909.72
2022-10-03T03:34:32.064Z,98906.19
2022-10-03T03:37:09.541Z,98915.69
2022-10-03T03:39:55.018Z,98925.75
2022-10-03T03:42:57.412Z,98927.06
2022-10-03T03:45:42.480Z,98935.22
2022-10-03T03:48:37.900Z,98930.06
2022-10-03T03:51:24.391Z,98916.94
2022-10-03T03:54:19.750Z,98929.69
2022-10-03T03:57:01.913Z,98929.13
2022-10-03T03:59:48.969Z,98926.41
2022-10-03T04:02:47.121Z,98935.91
2022-10-03T04:05:30.068Z,98935.91
2022-10-03T04:08:12.355Z,98933.19
2022-10-03T04:11:20.889Z,98931.28
2022-10-03T04:14:08.974Z,98934.00
2022-10-03T04:17:19.298Z,98933.19
2022-10-03T04:19:56.123Z,98928.31
2022-10-03T04:22:48.101Z,98920.41
2022-10-03T04:25:54.802Z,98922.06
2022-10-03T04:28:26.930Z,98924.78
2022-10-03T04:31:17.250Z,98923.38
2022-10-03T04:34:16.999Z,98925.84
2022-10-03T04:36:58.595Z,98930.22
2022-10-03T04:39:54.337Z,98927.75
2022-10-03T04:43:04.917Z,98928.56
2022-10-03T04:45:34.624Z,98932.09
2022-10-03T04:48:19.405Z,98933.19
2022-10-03T04:51:28.248Z,98934.00
2022-10-03T04:54:07.269Z,98938.62
2022-10-03T04:56:40.422Z,98928.81
2022-10-03T04:59:34.717Z,98933.44
2022-10-03T05:02:15.393Z,98936.16
2022-10-03T05:05:00.383Z,98946.22
2022-10-03T05:07:41.635Z,98954.13
2022-10-03T05:10:41.794Z,98955.44
2022-10-03T05:13:33.322Z,98951.66
2022-10-03T05:16:15.228Z,98944.56
2022-10-03T05:19:17.846Z,98957.59
2022-10-03T05:21:56.618Z,98967.66
2022-10-03T05:24:49.693Z,98964.09
2022-10-03T05:27:54.281Z,98966.00
2022-10-03T05:30:41.735Z,98973.09
2022-10-03T05:33:26.917Z,98983.41
2022-10-03T05:35:53.663Z,98982.81
2022-10-03T05:38:39.373Z,98986.13
2022-10-03T05:41:26.372Z,98991.81
2022-10-03T05:44:10.743Z,98998.62
2022-10-03T05:46:56.220Z,99000.03
2022-10-03T05:49:50.451Z,99000.28
2022-10-03T05:52:40.479Z,98998.38
2022-10-03T05:55:09.989Z,99006.28
2022-10-03T05:57:45.539Z,99005.22
2022-10-03T06:00:25.157Z,99006.88
2022-10-03T06:03:23.434Z,99004.72
2022-10-03T06:06:25.164Z,99013.69
2022-10-03T06:08:56.116Z,99018.87
2022-10-03T06:11:57.976Z,99026.53
2022-10-03T06:14:54.801Z,99019.81
2022-10-03T06:17:59.039Z,99026.06
2022-10-03T06:20:59.822Z,99018.72
2022-10-03T06:23:58.603Z,99021.44
2022-10-03T06:26:40.634Z,99025.81
2022-10-03T06:29:46.663Z,99032.66
2022-10-03T06:32:51.914Z,99032.66
2022-10-03T06:35:53.006Z,99036.75
2022-10-03T06:39:10.846Z,99037.84
2022-10-03T06:41:50.207Z,99035.69
2022-10-03T06:44:35.171Z,99029.41
2022-10-03T06:47:10.569Z,99033.78
2022-10-03T06:49:43.993Z,99042.78
2022-10-03T06:52:19.785Z,99043.59
2022-10-03T06:55:04.822Z,99046.06
2022-10-03T06:57:56.358Z,99044.75
2022-10-03T07:01:00.783Z,99052.41
2022-10-03T07:04:03.812Z,99057.34
2022-10-03T07:06:59.651Z,99060.16
2022-10-03T07:09:41.337Z,99061.28
2022-10-03T07:12:31.302Z,99066.22
2022-10-03T07:15:50.177Z,99066.53
2022-10-03T07:18:37.736Z,99058.69
2022-10-03T07:21:31.255Z,99057.13
2022-10-03T07:24:19.961Z,99064.56
2022-10-03T07:27:38.697Z,99066.50
2022-10-03T07:30:11.432Z,99070.94
2022-10-03T07:32:59.048Z,99067.19
2022-10-03T07:35:54.764Z,99069.16
2022-10-03T07:38:58.604Z,99075.50
2022-10-03T07:41:43.614Z,99079.94
2022-10-03T07:44:42.816Z,99080.81
2022-10-03T07:47:18.743Z,99078.41
2022-10-03T07:50:03.053Z,99068.41
2022-10-03T07:52:48.594Z,99073.28
2022-10-03T07:55:52.319Z,99074.94
2022-10-03T07:58:29.936Z,99072.53
2022-10-03T08:01:18.199Z,99082.34
2022-10-03T08:04:07.593Z,99086.19
2022-10-03T08:06:51.218Z,99082.69
2022-10-03T08:09:28.492Z,99087.97
2022-10-03T08:12:32.766Z,99090.78
2022-10-03T08:15:22.190Z,99088.94
2022-10-03T08:18:16.778Z,99091.12
2022-10-03T08:20:59.074Z,99087.06
2022-10-03T08:23:37.947Z,99093.66
2022-10-03T08:26:39.591Z,99093.69
2022-10-03T08:29:16.874Z,99099.75
2022-10-03T08:32:41.345Z,99094.84
2022-10-03T08:35:24.304Z,99105.81
2022-10-03T08:37:52.832Z,99088.94
2022-10-03T08:41:00.447Z,99091.97
2022-10-03T08:43:38.985Z,99093.91
2022-10-03T08:46:37.128Z,99103.25
2022-10-03T08:49:15.256Z,99103.28
2022-10-03T08:52:03.902Z,99098.94
2022-10-03T08:55:14.806Z,99103.06
2022-10-03T08:58:05.575Z,99097.06
2022-10-03T09:00:56.893Z,99111.03
2022-10-03T09:04:04.816Z,99098.75
2022-10-03T09:07:17.009Z,99097.19
2022-10-03T09:10:10.680Z,99103.50
2022-10-03T09:12:52.985Z,99102.44
2022-10-03T09:15:28.769Z,99113.69
2022-10-03T09:18:22.918Z,99103.09
2022-10-03T09:21:12.204Z,99100.41
2022-10-03T09:24:07.676Z,99105.88
2022-10-03T09:26:55.989Z,99106.19
2022-10-03T09:29:25.703Z,99116.03
2022-10-03T09:32:13.193Z,99104.13
2022-10-03T09:34:55.420Z,99106.06
2022-10-03T09:37:38.260Z,99102.78
2022-10-03T09:40:33.127Z,99108.00
2022-10-03T09:43:04.363Z,99117.31
2022-10-03T09:45:39.172Z,99111.88
2022-10-03T09:48:35.105Z,99115.72
2022-10-03T09:51:25.140Z,99106.75
2022-10-03T09:54:50.169Z,99123.97
2022-10-03T09:57:29.228Z,99108.16
2022-10-03T10:00:08.810Z,99111.75
2022-10-03T10:03:15.080Z,99099.19
2022-10-03T10:06:15.124Z,99090.19
2022-10-03T10:09:02.841Z,99088.56
2022-10-03T10:11:53.911Z,99092.66
2022-10-03T10:14:29.744Z,99089.13
2022-10-03T10:17:22.353Z,99087.25
2022-10-03T10:20:22.786Z,99092.47
2022-10-03T10:23:08.149Z,99093.56
2022-10-03T10:25:46.991Z,99087.28
2022-10-03T10:28:43.671Z,99082.66
2022-10-03T10:31:35.254Z,99096.34
2022-10-03T10:34:20.356Z,99096.09
2022-10-03T10:37:08.794Z,99080.50
2022-10-03T10:39:58.026Z,99095.31
2022-10-03T10:42:33.780Z,99090.94
2022-10-03T10:45:14.662Z,99084.66
2022-10-03T10:47:53.659Z,99084.13
2022-10-03T10:50:39.144Z,99081.94
2022-10-03T10:53:27.588Z,99089.84
2022-10-03T10:55:54.288Z,99084.66
2022-10-03T10:59:09.537Z,99080.28
2022-10-03T11:02:11.797Z,99088.75
2022-10-03T11:05:15.878Z,99097.25
2022-10-03T11:08:03.484Z,99095.63
2022-10-03T11:10:53.217Z,99098.38
2022-10-03T11:13:47.166Z,99098.91
2022-10-03T11:16:39.322Z,99103.28
2022-10-03T11:19:43.539Z,99096.69
2022-10-03T11:22:34.819Z,99103.56
2022-10-03T11:25:22.479Z,99095.34
2022-10-03T11:27:55.555Z,99100.00
2022-10-03T11:30:41.343Z,99098.62
2022-10-03T11:33:30.518Z,99084.38
2022-10-03T11:36:10.080Z,99093.97
2022-10-03T11:39:15.634Z,99097.25
2022-10-03T11:42:11.572Z,99092.88
2022-10-03T11:44:52.331Z,99090.69
2022-10-03T11:47:28.258Z,99100.81
2022-10-03T11:50:12.375Z,99093.69
2022-10-03T11:52:56.202Z,99082.44
2022-10-03T11:55:41.243Z,99080.25
2022-10-03T11:58:41.907Z,99078.59
2022-10-03T12:01:33.867Z,99084.34
2022-10-03T12:04:10.839Z,99081.84
2022-10-03T12:07:05.726Z,99076.13
2022-10-03T12:09:56.059Z,99084.06
2022-10-03T12:12:31.124Z,99082.97
2022-10-03T12:15:23.884Z,99072.00
2022-10-03T12:18:05.933Z,99060.78
2022-10-03T12:21:07.547Z,99057.75
2022-10-03T12:23:44.235Z,99060.22
2022-10-03T12:26:19.222Z,99060.22
2022-10-03T12:28:52.754Z,99063.50
2022-10-03T12:31:39.485Z,99057.47
2022-10-03T12:34:43.200Z,99059.12
2022-10-03T12:37:36.448Z,99061.84
2022-10-03T12:40:15.742Z,99060.72
2022-10-03T12:43:04.466Z,99056.59
2022-10-03T12:45:45.589Z,99058.25
2022-10-03T12:48:48.043Z,99063.19
2022-10-03T12:51:20.386Z,99059.34
2022-10-03T12:54:13.166Z,99061.28
2022-10-03T12:56:48.614Z,99054.97
2022-10-03T12:59:32.965Z,99061.56
2022-10-03T13:02:05.503Z,99063.19
2022-10-03T13:04:47.208Z,99058.53
2022-10-03T13:07:18.576Z,99066.47
2022-10-03T13:09:57.679Z,99072.50
2022-10-03T13:12:36.973Z,99064.00
2022-10-03T13:15:18.936Z,99065.34
2022-10-03T13:17:54.056Z,99078.50
2022-10-03T13:20:42.481Z,99070.22
2022-10-03T13:23:32.229Z,99072.97
2022-10-03T13:26:11.763Z,99072.94
2022-10-03T13:29:02.299Z,99065.78
2022-10-03T13:31:34.882Z,99060.84
2022-10-03T13:34:12.573Z,99069.31
2022-10-03T13:36:54.036Z,99067.94
2022-10-03T13:39:38.287Z,99067.38
2022-10-03T13:42:37.556Z,99081.63
2022-10-03T13:45:15.229Z,99070.41
2022-10-03T13:47:41.967Z,99062.69
2022-10-03T13:50:31.120Z,99077.22
2022-10-03T13:53:05.206Z,99074.78
2022-10-03T13:55:47.071Z,99083.81
2022-10-03T13:59:08.362Z,99077.81
2022-10-03T14:01:56.976Z,99073.38
2022-10-03T14:04:52.233Z,99072.56
2022-10-03T14:07:37.117Z,99072.84
2022-10-03T14:10:16.467Z,99073.97
2022-10-03T14:13:12.281Z,99072.59
2022-10-03T14:16:23.899Z,99081.13
2022-10-03T14:19:12.307Z,99078.66
2022-10-03T14:22:01.908Z,99078.94
2022-10-03T14:24:55.789Z,99079.75
2022-10-03T14:27:37.668Z,99074.28
2022-10-03T14:30:16.917Z,99090.72
2022-10-03T14:33:02.749Z,99086.34
2022-10-03T14:35:39.033Z,99087.16
2022-10-03T14:38:57.184Z,99086.34
2022-10-03T14:41:46.841Z,99082.78
2022-10-03T14:44:21.336Z,99096.50
2022-10-03T14:46:55.951Z,99099.53
2022-10-03T14:49:59.531Z,99108.03
2022-10-03T14:52:27.075Z,99097.62
2022-10-03T14:55:02.916Z,99096.81
2022-10-03T14:57:58.766Z,99101.75
2022-10-03T15:00:38.747Z,99107.78
2022-10-03T15:03:17.836Z,99119.84
2022-10-03T15:05:54.595Z,99116.56
2022-10-03T15:08:23.486Z,99118.75
2022-10-03T15:10:56.022Z,99130.28
2022-10-03T15:13:25.328Z,99123.44
2022-10-03T15:15:55.463Z,99110.88
2022-10-03T15:18:24.580Z,99116.09
2022-10-03T15:20:55.080Z,99112.25
2022-10-03T15:23:27.834Z,99113.91
2022-10-03T15:25:57.545Z,99112.28
2022-10-03T15:28:35.902Z,99110.06
2022-10-03T15:31:14.616Z,99108.16
2022-10-03T15:33:44.409Z,99103.25
2022-10-03T15:36:11.095Z,99121.03
2022-10-03T15:38:40.335Z,99113.66
2022-10-03T15:41:09.992Z,99112.56
2022-10-03T15:43:44.418Z,99118.31
2022-10-03T15:46:44.288Z,99120.50
2022-10-03T15:49:48.809Z,99115.31
2022-10-03T15:52:23.245Z,99115.88
2022-10-03T15:55:12.609Z,99109.84
2022-10-03T15:57:45.559Z,99109.31
2022-10-03T16:00:26.469Z,99107.09
2022-10-03T16:03:07.733Z,99112.84
2022-10-03T16:05:36.921Z,99115.31
2022-10-03T16:08:19.952Z,99117.50
2022-10-03T16:11:05.469Z,99110.94
2022-10-03T16:13:44.535Z,99100.00
2022-10-03T16:16:14.591Z,99104.13
2022-10-03T16:19:02.745Z,99103.84
2022-10-03T16:21:49.744Z,99099.16
2022-10-03T16:24:27.376Z,99103.84
2022-10-03T16:27:23.936Z,99098.38
2022-10-03T16:30:10.881Z,99095.63
2022-10-03T16:32:46.634Z,99101.06
2022-10-03T16:35:36.089Z,99096.69
2022-10-03T16:38:08.211Z,99096.69
2022-10-03T16:40:37.938Z,99104.09
2022-10-03T16:43:12.531Z,99096.13
2022-10-03T16:45:44.444Z,99094.16
2022-10-03T16:48:36.552Z,99097.72
2022-10-03T16:51:04.586Z,99098.81
2022-10-03T16:53:32.298Z,99097.41
2022-10-03T16:56:07.266Z,99104.50
2022-10-03T16:58:40.807Z,99104.78
2022-10-03T17:01:26.921Z,99112.97
2022-10-03T17:04:00.041Z,99114.06
2022-10-03T17:06:35.596Z,99119.53
2022-10-03T17:09:07.740Z,99137.81
2022-10-03T17:11:38.251Z,99150.09
2022-10-03T17:14:08.798Z,99154.16
2022-10-03T17:16:47.826Z,99166.72
2022-10-03T17:19:40.838Z,99167.25
2022-10-03T17:22:17.526Z,99175.19
2022-10-03T17:25:25.577Z,99180.38
2022-10-03T17:27:53.301Z,99172.72
2022-10-03T17:30:29.920Z,99163.44
2022-10-03T17:33:02.505Z,99166.47
2022-10-03T17:35:48.749Z,99159.91
2022-10-03T17:38:50.241Z,99157.72
2022-10-03T17:41:38.810Z,99165.06
2022-10-03T17:44:47.473Z,99163.44
2022-10-03T17:47:46.635Z,99167.81
2022-10-03T17:50:25.385Z,99178.44
2022-10-03T17:52:54.784Z,99187.19
2022-10-03T17:55:33.432Z,99190.41
2022-10-03T17:58:05.175Z,99203.50
2022-10-03T18:00:56.104Z,99194.19
2022-10-03T18:03:24.725Z,99197.72
2022-10-03T18:05:58.151Z,99195.78
2022-10-03T18:08:39.193Z,99190.56
2022-10-03T18:11:10.195Z,99183.69
2022-10-03T18:13:46.437Z,99192.47
2022-10-03T18:16:33.356Z,99192.97
2022-10-03T18:19:29.668Z,99185.31
2022-10-03T18:22:05.601Z,99190.22
2022-10-03T18:24:58.367Z,99192.37
2022-10-03T18:27:44.187Z,99196.22
2022-10-03T18:30:36.394Z,99195.09
2022-10-03T18:33:06.658Z,99198.34
2022-10-03T18:35:37.171Z,99198.88
2022-10-03T18:38:24.725Z,99187.03
2022-10-03T18:41:02.754Z,99187.28
2022-10-03T18:43:45.400Z,99187.56
2022-10-03T18:46:39.959Z,99197.34
2022-10-03T18:49:33.337Z,99194.59
2022-10-03T18:52:10.851Z,99201.09
2022-10-03T18:55:01.912Z,99205.41
2022-10-03T18:57:40.546Z,99206.19
2022-10-03T19:00:18.435Z,99206.44
2022-10-03T19:03:02.496Z,99207.22
2022-10-03T19:05:45.893Z,99201.16
2022-10-03T19:08:29.772Z,99201.97
2022-10-03T19:11:11.024Z,99204.84
2022-10-03T19:13:58.980Z,99202.66
2022-10-03T19:16:25.778Z,99207.50
2022-10-03T19:19:12.950Z,99197.09
2022-10-03T19:21:41.519Z,99200.91
2022-10-03T19:24:14.877Z,99199.75
2022-10-03T19:26:48.712Z,99196.72
2022-10-03T19:29:31.405Z,99195.31
2022-10-03T19:32:16.378Z,99191.72
2022-10-03T19:34:46.686Z,99193.25
2022-10-03T19:37:33.873Z,99192.66
2022-10-03T19:40:01.034Z,99188.53
2022-10-03T19:42:34.134Z,99194.78
2022-10-03T19:45:01.453Z,99180.56
2022-10-03T19:47:33.168Z,99189.00
2022-10-03T19:50:26.882Z,99192.50
2022-10-03T19:52:54.059Z,99195.47
2022-10-03T19:55:32.890Z,99189.97
2022-10-03T19:58:03.917Z,99189.38
2022-10-03T20:00:37.255Z,99199.13
2022-10-03T20:03:12.965Z,99197.97
2022-10-03T20:05:50.548Z,99201.19
2022-10-03T20:08:23.098Z,99201.66
2022-10-03T20:11:04.653Z,99199.44
2022-10-03T20:13:31.572Z,99203.81
2022-10-03T20:15:58.871Z,99214.13
2022-10-03T20:18:31.685Z,99203.81
2022-10-03T20:20:59.834Z,99205.22
2022-10-03T20:23:31.858Z,99208.44
2022-10-03T20:26:20.509Z,99208.37
2022-10-03T20:29:09.002Z,99204.91
2022-10-03T20:31:38.456Z,99205.47
2022-10-03T20:34:14.090Z,99211.44
2022-10-03T20:36:48.185Z,99203.19
2022-10-03T20:39:21.018Z,99204.91
2022-10-03T20:42:16.040Z,99214.72
2022-10-03T20:45:14.552Z,99211.62
2022-10-03T20:47:50.470Z,99208.31
2022-10-03T20:50:34.539Z,99194.22
2022-10-03T20:53:03.977Z,99195.69
2022-10-03T20:55:49.521Z,99196.69
2022-10-03T20:58:29.726Z,99187.13
2022-10-03T21:01:07.818Z,99184.91
2022-10-03T21:04:05.617Z,99180.44
2022-10-03T21:06:45.604Z,99171.72
2022-10-03T21:09:19.962Z,99175.50
2022-10-03T21:11:51.213Z,99182.03
2022-10-03T21:14:31.522Z,99197.03
2022-10-03T21:16:59.479Z,99192.09
2022-10-03T21:19:44.531Z,99198.94
2022-10-03T21:22:17.220Z,99202.72
2022-10-03T21:25:01.365Z,99200.81
2022-10-03T21:27:29.079Z,99204.38
2022-10-03T21:30:17.422Z,99202.31
2022-10-03T21:33:00.967Z,99199.59
2022-10-03T21:35:43.186Z,99205.53
2022-10-03T21:38:18.627Z,99207.91
2022-10-03T21:40:57.523Z,99210.53
2022-10-03T21:43:26.886Z,99212.44
2022-10-03T21:46:15.263Z,99216.78
2022-10-03T21:49:01.994Z,99215.72
2022-10-03T21:52:02.067Z,99218.84
2022-10-03T21:54:34.841Z,99212.00
2022-10-03T21:57:01.537Z,99213.34
2022-10-03T21:59:49.274Z,99208.37
2022-10-03T22:02:38.753Z,99214.31
2022-10-03T22:05:35.097Z,99203.56
2022-10-03T22:08:30.117Z,99202.88
2022-10-03T22:11:19.827Z,99198.38
2022-10-03T22:14:18.770Z,99195.34
2022-10-03T22:17:22.941Z,99186.28
2022-10-03T22:19:51.430Z,99196.00
2022-10-03T22:22:50.558Z,99194.00
2022-10-03T22:25:25.428Z,99187.13
2022-10-03T22:28:14.401Z,99190.56
2022-10-03T22:30:52.803Z,99195.66
2022-10-03T22:33:44.956Z,99192.84
2022-10-03T22:36:12.975Z,99191.69
2022-10-03T22:38:40.926Z,99194.09
2022-10-03T22:41:14.553Z,99196.69
2022-10-03T22:43:43.447Z,99197.41
2022-10-03T22:46:14.432Z,99193.53
2022-10-03T22:48:56.133Z,99189.16
2022-10-03T22:51:23.455Z,99182.56
2022-10-03T22:54:03.330Z,99185.53
2022-10-03T22:56:40.055Z,99184.81
2022-10-03T22:59:11.802Z,99194.53
2022-10-03T23:01:44.656Z,99189.56
2022-10-03T23:04:40.851Z,99181.16
2022-10-03T23:07:07.542Z,99197.72
2022-10-03T23:09:51.278Z,99181.75
2022-10-03T23:12:22.024Z,99180.97
2022-10-03T23:14:51.844Z,99184.66
2022-10-03T23:17:55.677Z,99180.28
2022-10-03T23:20:29.908Z,99187.00
2022-10-03T23:23:01.644Z,99184.53
2022-10-03T23:25:34.225Z,99187.50
2022-10-03T23:28:03.711Z,99183.72
2022-10-03T23:30:30.457Z,99184.19
2022-10-03T23:33:00.609Z,99188.22
2022-10-03T23:35:30.372Z,99171.09
2022-10-03T23:37:58.363Z,99181.12
2022-10-03T23:40:45.407Z,99171.91
2022-10-03T23:43:54.012Z,99164.84
2022-10-03T23:46:24.104Z,99161.66
2022-10-03T23:48:58.436Z,99157.88
2022-10-03T23:51:32.831Z,99166.94
2022-10-03T23:54:03.987Z,99165.88
2022-10-03T23:56:35.301Z,99164.59
2022-10-03T23:59:05.337Z,99162.22
